sensor_id;sensor_type;location;lat;lon;timestamp;P1;durP1;ratioP1;P2;durP2;ratioP2
41059;SDS011;26811;53.160;8.202;2023-03-20T00:00:06;36.17;;;14.15;;
41059;SDS011;26811;53.160;8.202;2023-03-20T00:05:16;36.80;;;14.75;;
41059;SDS011;26811;53.160;8.202;2023-03-20T00:10:20;38.42;;;16.70;;
41059;SDS011;26811;53.160;8.202;2023-03-20T00:15:31;34.80;;;14.98;;
41059;SDS011;26811;53.160;8.202;2023-03-20T00:20:35;34.03;;;13.95;;
41059;SDS011;26811;53.160;8.202;2023-03-20T00:25:35;30.73;;;13.63;;
41059;SDS011;26811;53.160;8.202;2023-03-20T00:30:38;33.70;;;14.80;;
41059;SDS011;26811;53.160;8.202;2023-03-20T00:35:39;25.17;;;11.35;;
41059;SDS011;26811;53.160;8.202;2023-03-20T00:40:39;20.30;;;9.85;;
41059;SDS011;26811;53.160;8.202;2023-03-20T00:45:40;19.58;;;9.80;;
41059;SDS011;26811;53.160;8.202;2023-03-20T00:50:43;21.00;;;10.60;;
41059;SDS011;26811;53.160;8.202;2023-03-20T00:55:43;21.05;;;10.07;;
41059;SDS011;26811;53.160;8.202;2023-03-20T01:00:44;18.27;;;9.77;;
41059;SDS011;26811;53.160;8.202;2023-03-20T01:05:45;21.20;;;9.93;;
41059;SDS011;26811;53.160;8.202;2023-03-20T01:10:47;20.52;;;9.73;;
41059;SDS011;26811;53.160;8.202;2023-03-20T01:15:50;19.33;;;9.35;;
41059;SDS011;26811;53.160;8.202;2023-03-20T01:20:52;21.30;;;10.27;;
41059;SDS011;26811;53.160;8.202;2023-03-20T01:25:52;17.92;;;9.77;;
41059;SDS011;26811;53.160;8.202;2023-03-20T01:30:53;19.42;;;8.85;;
41059;SDS011;26811;53.160;8.202;2023-03-20T01:35:53;16.98;;;8.55;;
41059;SDS011;26811;53.160;8.202;2023-03-20T01:41:05;17.73;;;8.70;;
41059;SDS011;26811;53.160;8.202;2023-03-20T01:46:18;22.00;;;8.77;;
41059;SDS011;26811;53.160;8.202;2023-03-20T01:51:27;18.75;;;8.75;;
41059;SDS011;26811;53.160;8.202;2023-03-20T01:56:32;17.17;;;8.43;;
41059;SDS011;26811;53.160;8.202;2023-03-20T02:01:37;20.00;;;8.77;;
41059;SDS011;26811;53.160;8.202;2023-03-20T02:06:39;17.30;;;8.70;;
41059;SDS011;26811;53.160;8.202;2023-03-20T02:11:43;17.00;;;8.35;;
41059;SDS011;26811;53.160;8.202;2023-03-20T02:16:45;14.98;;;7.97;;
41059;SDS011;26811;53.160;8.202;2023-03-20T02:21:55;19.48;;;8.02;;
41059;SDS011;26811;53.160;8.202;2023-03-20T02:38:21;17.58;;;8.35;;
41059;SDS011;26811;53.160;8.202;2023-03-20T02:48:48;12.50;;;7.07;;
41059;SDS011;26811;53.160;8.202;2023-03-20T02:59:39;16.48;;;7.72;;
41059;SDS011;26811;53.160;8.202;2023-03-20T03:04:57;15.95;;;7.90;;
41059;SDS011;26811;53.160;8.202;2023-03-20T03:10:04;13.43;;;7.10;;
41059;SDS011;26811;53.160;8.202;2023-03-20T03:15:30;16.83;;;7.38;;
41059;SDS011;26811;53.160;8.202;2023-03-20T03:20:32;14.02;;;7.20;;
41059;SDS011;26811;53.160;8.202;2023-03-20T03:25:36;15.90;;;7.78;;
41059;SDS011;26811;53.160;8.202;2023-03-20T03:30:39;14.50;;;7.43;;
41059;SDS011;26811;53.160;8.202;2023-03-20T03:35:41;14.60;;;7.75;;
41059;SDS011;26811;53.160;8.202;2023-03-20T03:40:50;15.15;;;7.82;;
41059;SDS011;26811;53.160;8.202;2023-03-20T03:46:06;14.32;;;8.05;;
41059;SDS011;26811;53.160;8.202;2023-03-20T03:51:15;18.02;;;8.05;;
41059;SDS011;26811;53.160;8.202;2023-03-20T03:56:19;18.20;;;8.45;;
41059;SDS011;26811;53.160;8.202;2023-03-20T04:01:24;18.45;;;7.78;;
41059;SDS011;26811;53.160;8.202;2023-03-20T04:06:27;17.33;;;9.30;;
41059;SDS011;26811;53.160;8.202;2023-03-20T04:11:28;19.85;;;8.57;;
41059;SDS011;26811;53.160;8.202;2023-03-20T04:16:29;16.05;;;8.52;;
41059;SDS011;26811;53.160;8.202;2023-03-20T04:21:29;15.35;;;8.25;;
41059;SDS011;26811;53.160;8.202;2023-03-20T04:26:30;18.48;;;8.70;;
41059;SDS011;26811;53.160;8.202;2023-03-20T04:31:31;19.92;;;9.27;;
41059;SDS011;26811;53.160;8.202;2023-03-20T04:36:31;22.50;;;9.52;;
41059;SDS011;26811;53.160;8.202;2023-03-20T04:41:32;17.95;;;9.55;;
41059;SDS011;26811;53.160;8.202;2023-03-20T04:46:32;18.98;;;8.65;;
41059;SDS011;26811;53.160;8.202;2023-03-20T04:51:33;19.10;;;9.20;;
41059;SDS011;26811;53.160;8.202;2023-03-20T04:56:33;19.83;;;9.10;;
41059;SDS011;26811;53.160;8.202;2023-03-20T05:01:34;23.67;;;9.95;;
41059;SDS011;26811;53.160;8.202;2023-03-20T05:06:35;23.00;;;9.75;;
41059;SDS011;26811;53.160;8.202;2023-03-20T05:11:35;24.38;;;9.23;;
41059;SDS011;26811;53.160;8.202;2023-03-20T05:16:36;19.85;;;9.98;;
41059;SDS011;26811;53.160;8.202;2023-03-20T05:21:37;19.95;;;9.52;;
41059;SDS011;26811;53.160;8.202;2023-03-20T05:26:38;22.20;;;9.02;;
41059;SDS011;26811;53.160;8.202;2023-03-20T05:31:39;18.48;;;8.82;;
41059;SDS011;26811;53.160;8.202;2023-03-20T05:36:40;24.58;;;8.27;;
41059;SDS011;26811;53.160;8.202;2023-03-20T05:41:40;20.23;;;8.95;;
41059;SDS011;26811;53.160;8.202;2023-03-20T05:46:41;18.52;;;8.65;;
41059;SDS011;26811;53.160;8.202;2023-03-20T05:51:42;18.42;;;8.60;;
41059;SDS011;26811;53.160;8.202;2023-03-20T05:56:42;23.02;;;10.05;;
41059;SDS011;26811;53.160;8.202;2023-03-20T06:01:43;26.40;;;9.35;;
41059;SDS011;26811;53.160;8.202;2023-03-20T06:06:43;19.67;;;9.63;;
41059;SDS011;26811;53.160;8.202;2023-03-20T06:11:44;19.10;;;9.60;;
41059;SDS011;26811;53.160;8.202;2023-03-20T06:16:45;21.85;;;9.98;;
41059;SDS011;26811;53.160;8.202;2023-03-20T06:21:46;20.55;;;10.90;;
41059;SDS011;26811;53.160;8.202;2023-03-20T06:26:47;25.33;;;10.43;;
41059;SDS011;26811;53.160;8.202;2023-03-20T06:31:48;24.95;;;10.88;;
41059;SDS011;26811;53.160;8.202;2023-03-20T06:36:48;26.70;;;11.02;;
41059;SDS011;26811;53.160;8.202;2023-03-20T06:41:49;22.80;;;11.00;;
41059;SDS011;26811;53.160;8.202;2023-03-20T06:46:50;21.92;;;12.05;;
41059;SDS011;26811;53.160;8.202;2023-03-20T06:51:50;21.70;;;10.25;;
41059;SDS011;26811;53.160;8.202;2023-03-20T06:56:51;24.23;;;11.18;;
41059;SDS011;26811;53.160;8.202;2023-03-20T07:01:52;22.23;;;10.68;;
41059;SDS011;26811;53.160;8.202;2023-03-20T07:06:52;24.23;;;11.43;;
41059;SDS011;26811;53.160;8.202;2023-03-20T07:11:53;25.70;;;11.32;;
41059;SDS011;26811;53.160;8.202;2023-03-20T07:16:54;22.50;;;11.10;;
41059;SDS011;26811;53.160;8.202;2023-03-20T07:21:57;31.13;;;10.57;;
41059;SDS011;26811;53.160;8.202;2023-03-20T07:27:01;24.90;;;9.82;;
41059;SDS011;26811;53.160;8.202;2023-03-20T07:32:01;22.77;;;9.32;;
41059;SDS011;26811;53.160;8.202;2023-03-20T07:37:02;19.85;;;8.30;;
41059;SDS011;26811;53.160;8.202;2023-03-20T07:42:03;20.95;;;8.13;;
41059;SDS011;26811;53.160;8.202;2023-03-20T07:47:04;19.05;;;7.65;;
41059;SDS011;26811;53.160;8.202;2023-03-20T07:52:06;15.93;;;7.78;;
41059;SDS011;26811;53.160;8.202;2023-03-20T07:57:06;14.23;;;7.72;;
41059;SDS011;26811;53.160;8.202;2023-03-20T08:04:31;16.90;;;7.97;;
41059;SDS011;26811;53.160;8.202;2023-03-20T08:09:44;16.27;;;7.82;;
41059;SDS011;26811;53.160;8.202;2023-03-20T08:15:07;16.52;;;8.43;;
41059;SDS011;26811;53.160;8.202;2023-03-20T08:20:20;18.10;;;7.72;;
41059;SDS011;26811;53.160;8.202;2023-03-20T08:25:29;14.43;;;8.13;;
41059;SDS011;26811;53.160;8.202;2023-03-20T08:30:32;18.23;;;8.23;;
41059;SDS011;26811;53.160;8.202;2023-03-20T08:36:15;12.65;;;7.35;;
41059;SDS011;26811;53.160;8.202;2023-03-20T08:41:16;15.02;;;7.88;;
41059;SDS011;26811;53.160;8.202;2023-03-20T08:47:52;16.20;;;7.82;;
41059;SDS011;26811;53.160;8.202;2023-03-20T08:52:53;11.43;;;7.13;;
41059;SDS011;26811;53.160;8.202;2023-03-20T08:57:54;19.80;;;8.25;;
41059;SDS011;26811;53.160;8.202;2023-03-20T09:02:56;12.07;;;6.82;;
41059;SDS011;26811;53.160;8.202;2023-03-20T09:07:56;14.40;;;6.72;;
41059;SDS011;26811;53.160;8.202;2023-03-20T09:12:59;16.08;;;6.93;;
41059;SDS011;26811;53.160;8.202;2023-03-20T09:18:00;11.23;;;6.68;;
41059;SDS011;26811;53.160;8.202;2023-03-20T09:23:00;12.90;;;6.40;;
41059;SDS011;26811;53.160;8.202;2023-03-20T09:28:01;13.95;;;6.88;;
41059;SDS011;26811;53.160;8.202;2023-03-20T09:33:01;11.15;;;6.15;;
41059;SDS011;26811;53.160;8.202;2023-03-20T09:38:02;12.25;;;6.95;;
41059;SDS011;26811;53.160;8.202;2023-03-20T09:48:18;8.65;;;5.65;;
41059;SDS011;26811;53.160;8.202;2023-03-20T09:53:38;13.27;;;5.82;;
41059;SDS011;26811;53.160;8.202;2023-03-20T09:58:41;9.38;;;5.45;;
41059;SDS011;26811;53.160;8.202;2023-03-20T10:03:56;13.82;;;5.70;;
41059;SDS011;26811;53.160;8.202;2023-03-20T10:08:59;9.23;;;5.15;;
41059;SDS011;26811;53.160;8.202;2023-03-20T10:19:21;12.95;;;5.18;;
41059;SDS011;26811;53.160;8.202;2023-03-20T10:24:31;12.23;;;5.80;;
41059;SDS011;26811;53.160;8.202;2023-03-20T10:34:58;10.43;;;5.28;;
41059;SDS011;26811;53.160;8.202;2023-03-20T10:45:44;10.52;;;5.20;;
41059;SDS011;26811;53.160;8.202;2023-03-20T10:51:14;11.57;;;5.55;;
41059;SDS011;26811;53.160;8.202;2023-03-20T11:01:28;11.43;;;5.45;;
41059;SDS011;26811;53.160;8.202;2023-03-20T11:06:32;11.60;;;5.40;;
41059;SDS011;26811;53.160;8.202;2023-03-20T11:11:41;15.85;;;5.60;;
41059;SDS011;26811;53.160;8.202;2023-03-20T11:16:49;10.73;;;5.90;;
41059;SDS011;26811;53.160;8.202;2023-03-20T11:21:55;12.05;;;6.07;;
41059;SDS011;26811;53.160;8.202;2023-03-20T11:27:10;10.88;;;5.35;;
41059;SDS011;26811;53.160;8.202;2023-03-20T11:32:21;12.40;;;6.18;;
41059;SDS011;26811;53.160;8.202;2023-03-20T11:38:06;15.77;;;6.50;;
41059;SDS011;26811;53.160;8.202;2023-03-20T11:43:19;19.27;;;6.22;;
41059;SDS011;26811;53.160;8.202;2023-03-20T11:48:23;16.05;;;6.93;;
41059;SDS011;26811;53.160;8.202;2023-03-20T11:53:38;12.55;;;6.55;;
41059;SDS011;26811;53.160;8.202;2023-03-20T11:58:56;11.85;;;7.28;;
41059;SDS011;26811;53.160;8.202;2023-03-20T12:09:25;13.23;;;6.68;;
41059;SDS011;26811;53.160;8.202;2023-03-20T12:15:02;16.08;;;6.95;;
41059;SDS011;26811;53.160;8.202;2023-03-20T12:36:18;14.20;;;7.05;;
41059;SDS011;26811;53.160;8.202;2023-03-20T12:41:29;14.27;;;7.15;;
41059;SDS011;26811;53.160;8.202;2023-03-20T12:52:38;14.75;;;7.07;;
41059;SDS011;26811;53.160;8.202;2023-03-20T13:08:35;20.40;;;7.00;;
41059;SDS011;26811;53.160;8.202;2023-03-20T13:13:49;14.13;;;5.80;;
41059;SDS011;26811;53.160;8.202;2023-03-20T13:35:27;10.18;;;6.30;;
41059;SDS011;26811;53.160;8.202;2023-03-20T13:41:07;10.80;;;6.68;;
41059;SDS011;26811;53.160;8.202;2023-03-20T13:51:30;15.15;;;7.63;;
41059;SDS011;26811;53.160;8.202;2023-03-20T13:56:45;18.13;;;7.70;;
41059;SDS011;26811;53.160;8.202;2023-03-20T14:02:04;17.02;;;9.65;;
41059;SDS011;26811;53.160;8.202;2023-03-20T14:07:36;22.40;;;8.55;;
41059;SDS011;26811;53.160;8.202;2023-03-20T14:12:40;17.08;;;9.40;;
41059;SDS011;26811;53.160;8.202;2023-03-20T14:17:45;19.90;;;9.52;;
41059;SDS011;26811;53.160;8.202;2023-03-20T14:22:47;18.35;;;10.30;;
41059;SDS011;26811;53.160;8.202;2023-03-20T14:27:55;17.88;;;9.00;;
41059;SDS011;26811;53.160;8.202;2023-03-20T14:44:12;18.73;;;10.77;;
41059;SDS011;26811;53.160;8.202;2023-03-20T14:54:44;17.83;;;10.23;;
41059;SDS011;26811;53.160;8.202;2023-03-20T14:59:54;20.65;;;9.68;;
41059;SDS011;26811;53.160;8.202;2023-03-20T15:04:55;17.20;;;9.30;;
41059;SDS011;26811;53.160;8.202;2023-03-20T15:09:57;18.30;;;9.45;;
41059;SDS011;26811;53.160;8.202;2023-03-20T15:15:03;17.45;;;8.35;;
41059;SDS011;26811;53.160;8.202;2023-03-20T15:20:16;13.98;;;8.00;;
41059;SDS011;26811;53.160;8.202;2023-03-20T15:25:19;16.00;;;8.80;;
41059;SDS011;26811;53.160;8.202;2023-03-20T15:30:24;14.35;;;8.23;;
41059;SDS011;26811;53.160;8.202;2023-03-20T15:35:25;15.00;;;8.88;;
41059;SDS011;26811;53.160;8.202;2023-03-20T15:40:30;17.90;;;8.88;;
41059;SDS011;26811;53.160;8.202;2023-03-20T15:45:33;14.57;;;8.63;;
41059;SDS011;26811;53.160;8.202;2023-03-20T15:50:36;16.42;;;8.52;;
41059;SDS011;26811;53.160;8.202;2023-03-20T16:00:41;16.20;;;7.95;;
41059;SDS011;26811;53.160;8.202;2023-03-20T16:05:45;14.50;;;6.55;;
41059;SDS011;26811;53.160;8.202;2023-03-20T16:10:53;12.13;;;6.93;;
41059;SDS011;26811;53.160;8.202;2023-03-20T16:15:55;12.55;;;6.80;;
41059;SDS011;26811;53.160;8.202;2023-03-20T16:20:57;11.05;;;6.03;;
41059;SDS011;26811;53.160;8.202;2023-03-20T16:26:03;10.95;;;6.22;;
41059;SDS011;26811;53.160;8.202;2023-03-20T16:36:19;12.63;;;5.80;;
41059;SDS011;26811;53.160;8.202;2023-03-20T16:46:32;8.65;;;5.60;;
41059;SDS011;26811;53.160;8.202;2023-03-20T16:51:33;8.10;;;5.50;;
41059;SDS011;26811;53.160;8.202;2023-03-20T16:56:34;11.95;;;6.07;;
41059;SDS011;26811;53.160;8.202;2023-03-20T17:01:40;10.57;;;6.32;;
41059;SDS011;26811;53.160;8.202;2023-03-20T17:12:17;20.03;;;7.37;;
41059;SDS011;26811;53.160;8.202;2023-03-20T17:17:18;13.63;;;7.22;;
41059;SDS011;26811;53.160;8.202;2023-03-20T17:27:23;14.05;;;7.43;;
41059;SDS011;26811;53.160;8.202;2023-03-20T17:32:24;16.83;;;8.85;;
41059;SDS011;26811;53.160;8.202;2023-03-20T17:37:26;19.25;;;10.93;;
41059;SDS011;26811;53.160;8.202;2023-03-20T17:42:28;22.25;;;10.50;;
41059;SDS011;26811;53.160;8.202;2023-03-20T17:47:30;22.38;;;10.70;;
41059;SDS011;26811;53.160;8.202;2023-03-20T17:52:30;23.55;;;11.23;;
41059;SDS011;26811;53.160;8.202;2023-03-20T17:57:35;23.30;;;11.10;;
41059;SDS011;26811;53.160;8.202;2023-03-20T18:02:37;22.42;;;11.80;;
41059;SDS011;26811;53.160;8.202;2023-03-20T18:07:38;18.10;;;10.93;;
41059;SDS011;26811;53.160;8.202;2023-03-20T18:12:38;22.20;;;10.32;;
41059;SDS011;26811;53.160;8.202;2023-03-20T18:17:42;19.40;;;9.85;;
41059;SDS011;26811;53.160;8.202;2023-03-20T18:22:42;17.75;;;10.02;;
41059;SDS011;26811;53.160;8.202;2023-03-20T18:27:43;14.50;;;9.52;;
41059;SDS011;26811;53.160;8.202;2023-03-20T18:32:44;17.45;;;10.27;;
41059;SDS011;26811;53.160;8.202;2023-03-20T18:37:53;16.10;;;10.48;;
41059;SDS011;26811;53.160;8.202;2023-03-20T18:42:57;17.23;;;10.23;;
41059;SDS011;26811;53.160;8.202;2023-03-20T18:47:58;14.95;;;9.07;;
41059;SDS011;26811;53.160;8.202;2023-03-20T18:53:10;15.27;;;9.45;;
41059;SDS011;26811;53.160;8.202;2023-03-20T18:58:20;14.70;;;9.32;;
41059;SDS011;26811;53.160;8.202;2023-03-20T19:03:25;17.15;;;10.38;;
41059;SDS011;26811;53.160;8.202;2023-03-20T19:08:30;20.27;;;11.30;;
41059;SDS011;26811;53.160;8.202;2023-03-20T19:13:34;21.48;;;10.70;;
41059;SDS011;26811;53.160;8.202;2023-03-20T19:18:37;24.17;;;11.50;;
41059;SDS011;26811;53.160;8.202;2023-03-20T19:23:37;20.48;;;11.93;;
41059;SDS011;26811;53.160;8.202;2023-03-20T19:28:38;23.00;;;12.50;;
41059;SDS011;26811;53.160;8.202;2023-03-20T19:33:40;20.85;;;12.27;;
41059;SDS011;26811;53.160;8.202;2023-03-20T19:38:41;22.05;;;12.95;;
41059;SDS011;26811;53.160;8.202;2023-03-20T19:43:41;22.55;;;13.55;;
41059;SDS011;26811;53.160;8.202;2023-03-20T19:48:42;22.63;;;13.57;;
41059;SDS011;26811;53.160;8.202;2023-03-20T19:53:44;22.63;;;14.00;;
41059;SDS011;26811;53.160;8.202;2023-03-20T19:58:46;26.75;;;15.02;;
41059;SDS011;26811;53.160;8.202;2023-03-20T20:03:47;30.35;;;15.60;;
41059;SDS011;26811;53.160;8.202;2023-03-20T20:08:49;28.00;;;16.38;;
41059;SDS011;26811;53.160;8.202;2023-03-20T20:13:49;30.10;;;16.30;;
41059;SDS011;26811;53.160;8.202;2023-03-20T20:18:50;28.35;;;17.05;;
41059;SDS011;26811;53.160;8.202;2023-03-20T20:23:50;27.23;;;17.08;;
41059;SDS011;26811;53.160;8.202;2023-03-20T20:28:51;32.45;;;18.52;;
41059;SDS011;26811;53.160;8.202;2023-03-20T20:33:52;33.38;;;18.80;;
41059;SDS011;26811;53.160;8.202;2023-03-20T20:43:55;36.75;;;18.75;;
41059;SDS011;26811;53.160;8.202;2023-03-20T20:48:56;38.50;;;20.65;;
41059;SDS011;26811;53.160;8.202;2023-03-20T20:53:57;34.78;;;21.90;;
41059;SDS011;26811;53.160;8.202;2023-03-20T20:58:57;39.88;;;20.42;;
41059;SDS011;26811;53.160;8.202;2023-03-20T21:03:58;38.92;;;22.63;;
41059;SDS011;26811;53.160;8.202;2023-03-20T21:08:58;39.20;;;22.13;;
41059;SDS011;26811;53.160;8.202;2023-03-20T21:13:59;38.55;;;21.92;;
41059;SDS011;26811;53.160;8.202;2023-03-20T21:19:00;45.30;;;23.73;;
41059;SDS011;26811;53.160;8.202;2023-03-20T21:24:00;50.80;;;23.95;;
41059;SDS011;26811;53.160;8.202;2023-03-20T21:29:01;47.80;;;25.42;;
41059;SDS011;26811;53.160;8.202;2023-03-20T21:34:02;50.50;;;24.83;;
41059;SDS011;26811;53.160;8.202;2023-03-20T21:39:05;48.20;;;26.23;;
41059;SDS011;26811;53.160;8.202;2023-03-20T21:44:06;58.17;;;28.73;;
41059;SDS011;26811;53.160;8.202;2023-03-20T21:49:07;57.55;;;27.67;;
41059;SDS011;26811;53.160;8.202;2023-03-20T21:54:08;54.90;;;27.35;;
41059;SDS011;26811;53.160;8.202;2023-03-20T21:59:09;54.28;;;27.23;;
41059;SDS011;26811;53.160;8.202;2023-03-20T22:04:10;61.30;;;28.70;;
41059;SDS011;26811;53.160;8.202;2023-03-20T22:09:10;60.08;;;27.60;;
41059;SDS011;26811;53.160;8.202;2023-03-20T22:14:11;63.63;;;28.88;;
41059;SDS011;26811;53.160;8.202;2023-03-20T22:19:12;59.80;;;28.70;;
41059;SDS011;26811;53.160;8.202;2023-03-20T22:24:16;65.13;;;28.45;;
41059;SDS011;26811;53.160;8.202;2023-03-20T22:29:17;66.05;;;30.08;;
41059;SDS011;26811;53.160;8.202;2023-03-20T22:34:21;59.22;;;28.88;;
41059;SDS011;26811;53.160;8.202;2023-03-20T22:39:22;61.95;;;30.92;;
41059;SDS011;26811;53.160;8.202;2023-03-20T22:44:23;70.20;;;29.77;;
41059;SDS011;26811;53.160;8.202;2023-03-20T22:49:24;64.65;;;29.10;;
41059;SDS011;26811;53.160;8.202;2023-03-20T22:54:24;74.97;;;28.58;;
41059;SDS011;26811;53.160;8.202;2023-03-20T22:59:25;70.80;;;28.88;;
41059;SDS011;26811;53.160;8.202;2023-03-20T23:04:26;64.53;;;29.35;;
41059;SDS011;26811;53.160;8.202;2023-03-20T23:09:26;64.60;;;29.25;;
41059;SDS011;26811;53.160;8.202;2023-03-20T23:14:27;67.75;;;30.83;;
41059;SDS011;26811;53.160;8.202;2023-03-20T23:19:28;69.70;;;31.40;;
41059;SDS011;26811;53.160;8.202;2023-03-20T23:24:28;66.68;;;30.15;;
41059;SDS011;26811;53.160;8.202;2023-03-20T23:29:29;70.88;;;31.05;;
41059;SDS011;26811;53.160;8.202;2023-03-20T23:34:30;73.80;;;30.15;;
41059;SDS011;26811;53.160;8.202;2023-03-20T23:39:31;76.05;;;30.95;;
41059;SDS011;26811;53.160;8.202;2023-03-20T23:44:31;70.03;;;29.65;;
41059;SDS011;26811;53.160;8.202;2023-03-20T23:49:32;68.22;;;30.38;;
41059;SDS011;26811;53.160;8.202;2023-03-20T23:54:33;77.50;;;29.65;;
41059;SDS011;26811;53.160;8.202;2023-03-20T23:59:33;67.05;;;29.00;;
